Time;durP1;ratioP1;P1;durP2;ratioP2;P2;SDS_P1;SDS_P2;PMS_P1;PMS_P2;Temp;Humidity;BMP_temperature;BMP_pressure;BME280_temperature;BME280_humidity;BME280_pressure;Samples;Min_cycle;Max_cycle;Signal;HPM_P1;HPM_P2
2023/07/27 00:01:32;;;;;;;13.70;10.10;;;;;;;23.05;68.76;99126.22;106151;1254;64861;-86
2023/07/27 00:04:00;;;;;;;13.60;10.50;;;;;;;23.08;68.51;99118.17;106813;1252;60555;-85
2023/07/27 00:06:27;;;;;;;12.60;10.10;;;;;;;23.13;68.45;99118.87;106114;1257;62437;-84
2023/07/27 00:08:56;;;;;;;14.10;11.80;;;;;;;23.19;68.50;99117.76;106123;1254;60510;-84
2023/07/27 00:11:24;;;;;;;13.60;10.60;;;;;;;23.23;68.28;99119.92;106459;1254;60566;-84
2023/07/27 00:13:51;;;;;;;15.50;11.20;;;;;;;23.21;68.43;99118.06;105982;1254;64884;-82
2023/07/27 00:16:19;;;;;;;13.60;11.20;;;;;;;23.20;68.27;99112.58;106770;1253;61479;-84
2023/07/27 00:18:46;;;;;;;13.90;10.60;;;;;;;23.22;68.23;99114.33;108863;1252;62422;-83
2023/07/27 00:21:14;;;;;;;14.90;11.40;;;;;;;23.24;68.21;99115.45;108191;1253;60517;-78
2023/07/27 00:23:41;;;;;;;14.70;11.30;;;;;;;23.25;68.14;99115.20;105896;1252;60595;-81
2023/07/27 00:26:09;;;;;;;11.70;9.60;;;;;;;23.26;68.09;99105.77;106110;1253;64916;-78
2023/07/27 00:28:36;;;;;;;13.40;11.20;;;;;;;23.26;68.12;99107.72;107579;1254;60264;-79
2023/07/27 00:31:04;;;;;;;12.80;10.80;;;;;;;23.26;68.27;99107.76;108010;1254;62622;-79
2023/07/27 00:33:31;;;;;;;14.80;11.30;;;;;;;23.24;68.32;99103.59;106768;1253;60329;-83
2023/07/27 00:36:00;;;;;;;13.80;10.90;;;;;;;23.25;68.50;99103.56;109647;1252;57814;-84
2023/07/27 00:38:28;;;;;;;13.40;11.20;;;;;;;23.31;68.33;99108.23;107420;1254;63688;-79
2023/07/27 00:40:55;;;;;;;13.30;11.80;;;;;;;23.34;68.18;99115.48;105850;1259;61416;-79
2023/07/27 00:43:23;;;;;;;16.20;11.40;;;;;;;23.34;68.17;99123.17;105905;1271;63678;-78
2023/07/27 00:45:50;;;;;;;14.80;10.60;;;;;;;23.32;68.30;99129.03;106109;1253;60466;-85
2023/07/27 00:48:18;;;;;;;15.40;11.20;;;;;;;23.31;68.48;99133.70;106497;1256;60459;-84
2023/07/27 00:50:46;;;;;;;14.20;11.80;;;;;;;23.33;68.67;99133.67;105857;1254;64859;-87
2023/07/27 00:53:14;;;;;;;14.90;11.60;;;;;;;23.34;68.68;99130.41;106587;1252;61332;-83
2023/07/27 00:55:42;;;;;;;15.00;12.10;;;;;;;23.32;68.66;99118.20;106076;1256;63680;-80
2023/07/27 00:58:10;;;;;;;15.70;12.00;;;;;;;23.30;68.68;99101.40;106702;1254;60539;-84
2023/07/27 01:00:38;;;;;;;17.90;12.00;;;;;;;23.28;68.67;99094.76;106230;1253;60332;-78
2023/07/27 01:03:05;;;;;;;14.90;12.30;;;;;;;23.29;68.82;99084.15;107177;1254;63665;-77
2023/07/27 01:05:33;;;;;;;15.50;12.30;;;;;;;23.34;68.69;99071.20;108941;1252;60092;-77
2023/07/27 01:08:00;;;;;;;13.60;11.90;;;;;;;23.39;68.52;99069.53;108588;1254;62535;-79
2023/07/27 01:10:35;;;;;;;15.30;11.60;;;;;;;23.44;68.42;99068.17;109050;1252;60450;-79
2023/07/27 01:13:12;;;;;;;16.50;14.20;;;;;;;23.43;68.41;99072.84;106534;1253;60367;-85
2023/07/27 01:15:42;;;;;;;15.60;13.10;;;;;;;23.43;68.33;99084.74;106460;1253;64954;-84
2023/07/27 01:18:17;;;;;;;15.70;14.00;;;;;;;23.36;68.76;99102.72;106328;1259;69426;-78
2023/07/27 01:21:07;;;;;;;17.80;15.10;;;;;;;23.31;69.00;99108.98;106632;1254;71595;-78
2023/07/27 01:23:57;;;;;;;17.60;14.30;;;;;;;23.28;69.10;99105.98;106059;1253;60649;-81
2023/07/27 01:26:40;;;;;;;14.80;12.30;;;;;;;23.26;68.96;99099.34;106759;1258;60378;-79
2023/07/27 01:29:22;;;;;;;15.80;12.50;;;;;;;23.25;69.03;99089.38;107037;1253;64871;-83
2023/07/27 01:31:51;;;;;;;18.70;15.60;;;;;;;23.24;68.99;99081.54;105894;1253;61675;-78
2023/07/27 01:34:26;;;;;;;19.70;16.10;;;;;;;23.20;68.92;99075.96;106429;1253;63833;-81
2023/07/27 01:36:58;;;;;;;;;;;;;;;23.14;69.11;99070.34;106264;1260;60588;-79
2023/07/27 01:39:26;;;;;;;21.10;17.20;;;;;;;23.06;69.15;99059.14;106612;1253;60544;-78
2023/07/27 01:41:54;;;;;;;20.60;16.90;;;;;;;22.97;69.53;99050.14;108190;1260;63791;-78
2023/07/27 01:44:22;;;;;;;21.30;17.10;;;;;;;22.91;69.66;99049.88;105920;1255;61311;-80
2023/07/27 01:46:53;;;;;;;21.70;18.30;;;;;;;22.88;69.81;99038.54;105909;1253;63845;-77
2023/07/27 01:49:21;;;;;;;21.80;18.40;;;;;;;22.90;70.12;99023.50;106108;1258;60578;-85
2023/07/27 01:51:48;;;;;;;23.50;17.60;;;;;;;22.95;69.99;99016.60;106196;1254;60539;-87
2023/07/27 01:54:16;;;;;;;20.40;16.00;;;;;;;23.00;69.85;99021.77;106173;1255;63987;-80
2023/07/27 01:56:45;;;;;;;18.40;14.90;;;;;;;23.03;69.53;99030.55;105828;1254;60446;-80
2023/07/27 01:59:12;;;;;;;18.80;14.60;;;;;;;22.99;69.30;99034.85;107203;1253;62954;-85
2023/07/27 02:01:42;;;;;;;18.70;15.90;;;;;;;22.91;69.25;99033.45;108511;1254;60387;-77
2023/07/27 02:04:11;;;;;;;19.90;16.20;;;;;;;22.86;69.54;99028.73;105921;1259;61030;-87
2023/07/27 02:06:39;;;;;;;18.30;14.80;;;;;;;22.79;69.39;99043.40;105781;1255;64938;-84
2023/07/27 02:09:06;;;;;;;19.40;15.50;;;;;;;22.66;69.52;99041.20;106082;1259;61468;-85
2023/07/27 02:11:34;;;;;;;18.70;15.30;;;;;;;22.55;69.81;99023.95;106477;1253;62518;-78
2023/07/27 02:14:04;;;;;;;22.50;16.60;;;;;;;22.49;70.43;98978.83;106088;1254;60460;-78
2023/07/27 02:16:38;;;;;;;21.80;16.90;;;;;;;22.50;70.83;98901.13;107585;1253;60460;-80
2023/07/27 02:19:06;;;;;;;21.60;17.20;;;;;;;22.48;70.89;98866.90;109478;1253;63753;-81
2023/07/27 02:21:33;;;;;;;25.10;19.20;;;;;;;22.45;71.20;98882.80;109348;1253;61747;-81
2023/07/27 02:24:00;;;;;;;22.70;19.30;;;;;;;22.43;71.42;98940.76;108735;1254;62459;-82
2023/07/27 02:26:28;;;;;;;20.90;16.20;;;;;;;22.44;71.56;99019.65;108910;1259;59141;-84
2023/07/27 02:28:56;;;;;;;21.10;16.90;;;;;;;22.45;71.69;99066.73;109363;1252;57916;-81
2023/07/27 02:31:25;;;;;;;22.30;17.10;;;;;;;22.44;71.74;99067.73;108940;1253;64996;-79
2023/07/27 02:33:52;;;;;;;18.30;14.70;;;;;;;22.47;72.12;99060.72;107757;1254;60453;-81
2023/07/27 02:36:20;;;;;;;18.50;14.90;;;;;;;22.54;72.06;99047.36;109484;1254;62467;-80
2023/07/27 02:38:47;;;;;;;19.40;15.70;;;;;;;22.59;71.87;99042.80;108866;1253;59244;-79
2023/07/27 02:41:15;;;;;;;17.10;14.40;;;;;;;22.63;71.70;99053.67;106339;1258;60567;-81
2023/07/27 02:43:42;;;;;;;18.90;15.80;;;;;;;22.63;71.35;99057.48;106291;1254;65041;-84
2023/07/27 02:46:10;;;;;;;19.70;16.00;;;;;;;22.62;71.30;99049.20;106424;1254;61313;-82
2023/07/27 02:48:38;;;;;;;18.60;14.50;;;;;;;22.61;71.20;99045.63;106184;1254;62513;-83
2023/07/27 02:51:05;;;;;;;20.40;16.50;;;;;;;22.56;71.17;99054.95;107086;1259;60501;-85
2023/07/27 02:53:33;;;;;;;20.80;15.70;;;;;;;22.52;71.08;99053.41;106590;1253;60548;-87
2023/07/27 02:56:02;;;;;;;19.00;15.10;;;;;;;22.51;71.02;99049.18;107690;1253;64955;-88
2023/07/27 02:58:37;;;;;;;17.90;14.20;;;;;;;22.54;71.09;99038.45;106491;1254;61531;-85
2023/07/27 03:01:06;;;;;;;18.60;14.80;;;;;;;22.58;71.29;99033.46;106531;1260;63740;-87
2023/07/27 03:03:33;;;;;;;16.10;13.60;;;;;;;22.67;71.36;99056.93;106055;1254;60536;-81
2023/07/27 03:06:08;;;;;;;19.40;15.40;;;;;;;22.76;71.24;99098.48;106209;1254;61068;-86
2023/07/27 03:08:37;;;;;;;17.30;14.30;;;;;;;22.85;71.13;99128.59;106182;1254;64940;-79
2023/07/27 03:11:05;;;;;;;19.10;15.10;;;;;;;22.92;70.73;99151.87;106427;1260;61147;-79
2023/07/27 03:13:32;;;;;;;20.40;15.40;;;;;;;22.94;70.51;99154.59;106095;1259;62515;-79
2023/07/27 03:16:08;;;;;;;20.60;17.40;;;;;;;22.97;70.63;99149.94;108508;1253;59645;-84
2023/07/27 03:18:35;;;;;;;26.40;18.60;;;;;;;22.97;70.54;99144.52;109481;1253;57802;-84
2023/07/27 03:21:03;;;;;;;22.90;18.80;;;;;;;22.95;70.32;99143.84;108870;1253;63679;-86
2023/07/27 03:23:33;;;;;;;21.70;17.70;;;;;;;22.93;70.28;99150.61;107696;1254;60479;-86
2023/07/27 03:26:01;;;;;;;23.30;20.10;;;;;;;22.90;70.29;99153.55;106283;1260;63707;-85
2023/07/27 03:28:29;;;;;;;24.20;19.80;;;;;;;22.88;70.15;99146.51;106069;1255;60475;-86
2023/07/27 03:30:56;;;;;;;22.70;17.20;;;;;;;22.85;70.34;99141.55;106260;1259;60555;-85
2023/07/27 03:33:24;;;;;;;21.70;18.30;;;;;;;22.85;70.50;99142.05;106293;1254;64889;-86
2023/07/27 03:35:53;;;;;;;22.60;18.70;;;;;;;22.89;70.73;99134.85;106146;1258;61580;-85
2023/07/27 03:38:21;;;;;;;24.30;18.80;;;;;;;22.93;70.89;99081.99;106634;1260;63770;-84
2023/07/27 03:40:48;;;;;;;24.90;18.50;;;;;;;22.96;70.52;99029.20;105923;1257;60518;-83
2023/07/27 03:43:15;;;;;;;23.40;19.90;;;;;;;22.86;69.62;99006.05;106326;1254;60565;-85
2023/07/27 03:45:43;;;;;;;22.40;17.70;;;;;;;22.70;70.28;99012.54;105954;1261;63714;-83
2023/07/27 03:48:10;;;;;;;21.50;17.80;;;;;;;22.65;70.89;99068.14;106103;1254;60568;-84
2023/07/27 03:50:38;;;;;;;22.30;18.30;;;;;;;22.64;71.28;99106.61;106035;1259;62517;-80
2023/07/27 03:53:05;;;;;;;24.10;18.80;;;;;;;22.67;71.49;99124.09;106158;1258;60417;-84
2023/07/27 03:55:33;;;;;;;21.20;16.60;;;;;;;22.65;71.44;99138.22;108761;1252;60447;-84
2023/07/27 03:58:00;;;;;;;24.90;18.10;;;;;;;22.66;71.71;99151.04;107877;1253;63756;-82
2023/07/27 04:00:27;;;;;;;19.60;15.30;;;;;;;22.70;71.79;99147.88;109563;1253;60078;-82
2023/07/27 04:02:55;;;;;;;21.30;15.00;;;;;;;22.76;71.70;99129.52;109553;1253;62455;-83
2023/07/27 04:05:23;;;;;;;19.50;15.60;;;;;;;22.79;71.26;99114.79;107941;1254;60472;-80
2023/07/27 04:07:52;;;;;;;16.80;14.10;;;;;;;22.83;71.37;99117.98;106037;1257;60507;-84
2023/07/27 04:10:19;;;;;;;17.50;13.90;;;;;;;22.87;71.24;99119.08;106791;1252;63613;-83
2023/07/27 04:12:47;;;;;;;15.90;12.90;;;;;;;22.90;71.14;99115.23;107172;1254;60587;-83
2023/07/27 04:15:14;;;;;;;16.20;12.60;;;;;;;22.89;70.85;99105.55;106573;1257;62674;-86
2023/07/27 04:17:42;;;;;;;15.80;13.20;;;;;;;22.88;71.03;99119.06;106192;1257;60486;-84
2023/07/27 04:20:10;;;;;;;14.30;11.50;;;;;;;22.89;71.18;99136.98;106037;1254;60546;-85
2023/07/27 04:22:37;;;;;;;13.90;11.20;;;;;;;22.92;71.18;99153.14;106281;1259;63779;-84
2023/07/27 04:25:06;;;;;;;14.70;12.30;;;;;;;22.93;71.13;99154.82;106296;1259;61369;-81
2023/07/27 04:27:33;;;;;;;15.40;12.20;;;;;;;22.92;71.03;99138.17;106116;1257;62533;-79
2023/07/27 04:30:01;;;;;;;14.30;11.50;;;;;;;22.94;71.24;99134.10;105927;1254;60379;-86
2023/07/27 04:32:28;;;;;;;15.20;10.70;;;;;;;22.94;71.06;99133.84;106597;1256;60450;-86
2023/07/27 04:34:57;;;;;;;13.90;11.50;;;;;;;22.91;70.82;99135.16;106528;1254;63812;-86
2023/07/27 04:37:25;;;;;;;13.50;11.80;;;;;;;22.87;70.76;99131.86;106513;1258;60427;-87
2023/07/27 04:39:52;;;;;;;14.30;11.50;;;;;;;22.86;70.83;99136.21;106647;1253;62452;-87
2023/07/27 04:42:20;;;;;;;13.00;10.90;;;;;;;22.88;71.15;99134.45;107607;1257;60539;-88
2023/07/27 04:44:47;;;;;;;13.20;10.60;;;;;;;22.92;71.10;99131.44;108964;1254;58105;-88
2023/07/27 04:47:15;;;;;;;12.20;10.50;;;;;;;23.02;71.17;99134.86;108878;1254;64750;-87
2023/07/27 04:49:42;;;;;;;12.00;9.50;;;;;;;23.10;71.16;99134.96;106593;1254;60556;-86
2023/07/27 04:52:10;;;;;;;14.50;10.30;;;;;;;23.17;71.07;99126.05;106404;1254;63746;-88
2023/07/27 04:54:37;;;;;;;13.00;10.50;;;;;;;23.23;71.10;99115.63;106108;1258;60546;-85
2023/07/27 04:57:05;;;;;;;13.70;10.80;;;;;;;23.25;70.93;99092.09;106253;1254;60513;-82
2023/07/27 04:59:32;;;;;;;11.90;10.10;;;;;;;23.29;70.79;99072.06;105733;1254;65067;-89
2023/07/27 05:02:00;;;;;;;11.90;9.70;;;;;;;23.32;70.40;99063.08;105961;1257;60440;-84
2023/07/27 05:04:27;;;;;;;10.90;8.60;;;;;;;23.37;70.30;99052.78;106458;1254;62497;-90
2023/07/27 05:06:55;;;;;;;12.20;9.50;;;;;;;23.42;70.21;99043.30;105956;1254;60461;-82
2023/07/27 05:09:22;;;;;;;10.60;8.30;;;;;;;23.48;70.10;99046.25;106290;1254;60421;-82
2023/07/27 05:11:50;;;;;;;8.40;6.80;;;;;;;23.54;69.64;99049.15;106005;1260;64986;-88
2023/07/27 05:14:17;;;;;;;14.00;9.00;;;;;;;23.59;69.21;99044.13;105978;1259;60535;-84
2023/07/27 05:16:45;;;;;;;9.30;7.60;;;;;;;23.62;68.85;99018.95;106780;1257;62598;-83
2023/07/27 05:19:12;;;;;;;11.50;8.70;;;;;;;23.63;68.46;99006.58;106230;1258;60511;-82
2023/07/27 05:21:40;;;;;;;10.00;8.60;;;;;;;23.60;68.39;99001.56;107314;1257;59554;-83
2023/07/27 05:24:07;;;;;;;11.30;9.00;;;;;;;23.54;68.45;98998.46;106376;1254;64860;-82
2023/07/27 05:26:34;;;;;;;12.00;9.00;;;;;;;23.48;68.72;98999.80;105932;1254;61323;-82
2023/07/27 05:29:02;;;;;;;10.20;8.60;;;;;;;23.46;69.00;98996.81;106590;1254;63732;-83
2023/07/27 05:31:30;;;;;;;10.10;8.30;;;;;;;23.46;68.82;98993.91;106187;1255;60485;-80
2023/07/27 05:33:57;;;;;;;11.80;8.30;;;;;;;23.44;68.89;98992.17;106219;1257;60412;-81
2023/07/27 05:36:25;;;;;;;10.30;8.00;;;;;;;23.42;68.78;99005.01;106287;1259;63694;-85
2023/07/27 05:38:52;;;;;;;11.10;8.10;;;;;;;23.41;68.55;99012.71;106190;1257;61294;-85
2023/07/27 05:41:20;;;;;;;9.60;7.80;;;;;;;23.42;68.81;99013.77;109620;1253;62640;-83
2023/07/27 05:43:47;;;;;;;9.50;7.80;;;;;;;23.49;68.77;99015.81;109666;1254;57756;-83
2023/07/27 05:46:15;;;;;;;10.70;8.60;;;;;;;23.57;68.67;99011.39;109705;1254;57616;-83
2023/07/27 05:48:42;;;;;;;12.30;8.80;;;;;;;23.61;68.51;99007.61;109742;1253;63668;-83
2023/07/27 05:51:10;;;;;;;11.30;8.80;;;;;;;23.66;68.52;99007.33;109617;1254;60106;-83
2023/07/27 05:53:37;;;;;;;9.70;8.20;;;;;;;23.71;68.54;99005.25;109526;1257;62442;-83
2023/07/27 05:56:05;;;;;;;10.60;8.80;;;;;;;23.74;68.31;99004.88;106266;1258;60559;-85
2023/07/27 05:58:32;;;;;;;11.70;8.80;;;;;;;23.78;67.95;99001.59;106602;1254;60671;-83
2023/07/27 06:01:00;;;;;;;10.70;8.10;;;;;;;23.80;67.90;99004.91;108556;1253;65031;-83
2023/07/27 06:03:29;;;;;;;10.10;7.90;;;;;;;23.76;67.52;99017.22;105967;1259;61405;-81
2023/07/27 06:05:56;;;;;;;9.50;7.50;;;;;;;23.70;67.61;99023.93;106075;1259;63714;-80
2023/07/27 06:08:24;;;;;;;11.40;8.50;;;;;;;23.67;67.51;99030.52;105942;1259;60517;-84
2023/07/27 06:11:06;;;;;;;10.50;8.30;;;;;;;23.59;67.48;99033.17;106106;1253;60970;-83
2023/07/27 06:13:33;;;;;;;11.60;8.60;;;;;;;23.53;68.15;99034.14;106067;1254;74817;-85
2023/07/27 06:16:01;;;;;;;12.20;9.70;;;;;;;23.54;68.59;99033.03;105925;1254;61390;-84
2023/07/27 06:18:30;;;;;;;12.00;9.20;;;;;;;23.58;68.63;99036.54;106418;1257;62541;-79
2023/07/27 06:20:58;;;;;;;10.20;8.70;;;;;;;23.61;68.51;99038.80;106016;1259;60562;-79
2023/07/27 06:23:26;;;;;;;10.10;8.20;;;;;;;23.62;68.65;99044.55;105951;1259;60397;-81
2023/07/27 06:25:53;;;;;;;10.50;8.90;;;;;;;23.61;68.37;99051.10;105999;1259;64864;-83
2023/07/27 06:28:21;;;;;;;12.40;10.20;;;;;;;23.56;68.00;99053.48;106266;1254;61945;-84
2023/07/27 06:30:49;;;;;;;12.90;10.80;;;;;;;23.52;68.23;99059.11;106527;1259;62445;-88
2023/07/27 06:33:17;;;;;;;12.90;10.10;;;;;;;23.51;68.39;99062.63;105936;1260;60434;-79
2023/07/27 06:35:44;;;;;;;14.20;10.80;;;;;;;23.49;68.54;99067.52;106495;1254;60463;-79
2023/07/27 06:38:12;;;;;;;13.30;11.60;;;;;;;23.45;68.58;99066.98;105990;1254;63639;-84
2023/07/27 06:40:39;;;;;;;13.20;11.80;;;;;;;23.42;68.80;99067.88;108342;1254;60259;-80
2023/07/27 06:43:07;;;;;;;13.40;11.90;;;;;;;23.38;69.11;99067.54;106354;1259;62556;-78
2023/07/27 06:45:34;;;;;;;17.20;13.00;;;;;;;23.39;69.46;99065.98;105930;1259;60437;-79
2023/07/27 06:48:02;;;;;;;12.90;11.30;;;;;;;23.41;69.46;99064.95;106287;1253;60540;-80
2023/07/27 06:50:30;;;;;;;13.40;10.90;;;;;;;23.41;69.33;99067.64;107475;1253;63649;-83
2023/07/27 06:52:57;;;;;;;13.50;11.90;;;;;;;23.42;69.34;99073.83;109589;1254;60501;-83
2023/07/27 06:58:57;;;;;;;14.90;12.30;;;;;;;23.61;69.85;99069.79;102019;1295;601197;-60
2023/07/27 07:01:25;;;;;;;14.50;12.20;;;;;;;23.65;69.67;99071.95;104281;1264;59325;-59
2023/07/27 07:03:53;;;;;;;14.40;11.60;;;;;;;23.68;69.29;99075.98;104469;1267;59273;-57
2023/07/27 07:06:21;;;;;;;16.80;14.90;;;;;;;23.68;69.23;99078.84;104648;1270;63281;-58
2023/07/27 07:08:49;;;;;;;13.80;12.10;;;;;;;23.68;69.07;99077.42;104479;1267;63988;-58
2023/07/27 07:11:16;;;;;;;15.00;13.20;;;;;;;23.70;69.23;99082.41;104269;1266;64711;-60
2023/07/27 07:13:44;;;;;;;14.40;12.70;;;;;;;23.72;69.37;99085.98;104301;1264;207952;-58
2023/07/27 07:16:11;;;;;;;13.30;11.10;;;;;;;23.73;69.44;99091.37;104689;1264;59496;-57
2023/07/27 07:18:39;;;;;;;14.90;11.40;;;;;;;23.76;69.56;99095.47;104410;1263;62106;-59
2023/07/27 07:21:08;;;;;;;12.90;10.40;;;;;;;23.79;69.56;99098.58;104959;1263;61348;-57
2023/07/27 07:23:35;;;;;;;12.10;9.60;;;;;;;23.83;69.68;99099.21;104188;1272;63950;-56
2023/07/27 07:26:03;;;;;;;10.30;8.60;;;;;;;23.88;69.65;99094.74;105029;1264;59710;-65
2023/07/27 07:28:31;;;;;;;10.60;8.60;;;;;;;23.90;69.36;99092.68;105597;1263;61535;-60
2023/07/27 07:30:58;;;;;;;9.80;8.00;;;;;;;23.96;69.56;99089.23;104613;1264;62860;-59
2023/07/27 07:33:26;;;;;;;8.90;6.80;;;;;;;24.06;69.34;99084.31;104938;1267;62992;-61
2023/07/27 07:35:53;;;;;;;9.10;6.80;;;;;;;24.15;68.78;99078.58;104510;1264;63777;-60
2023/07/27 07:40:58;;;;;;;9.90;7.70;;;;;;;23.99;69.56;99074.38;101932;1292;601244;-58
2023/07/27 07:43:26;;;;;;;9.60;7.30;;;;;;;24.14;68.70;99078.73;104569;1269;59462;-56
2023/07/27 07:45:54;;;;;;;8.20;6.50;;;;;;;24.14;68.44;99088.46;104854;1256;59246;-58
2023/07/27 07:48:22;;;;;;;8.40;6.70;;;;;;;24.13;68.28;99101.35;105036;1259;63375;-57
2023/07/27 07:50:51;;;;;;;8.30;6.60;;;;;;;24.10;68.05;99102.04;104898;1254;62113;-58
2023/07/27 07:53:19;;;;;;;10.00;7.00;;;;;;;24.05;68.03;99105.63;105185;1256;63840;-56
2023/07/27 07:56:00;;;;;;;10.10;6.70;;;;;;;24.05;68.20;99106.64;105521;1253;59329;-56
2023/07/27 07:58:27;;;;;;;9.30;7.60;;;;;;;24.04;68.13;99104.53;105139;1258;59345;-54
2023/07/27 08:00:55;;;;;;;9.10;7.20;;;;;;;24.04;68.11;99106.60;105084;1253;61981;-55
2023/07/27 08:03:22;;;;;;;9.50;7.60;;;;;;;24.04;68.21;99106.07;105139;1253;61358;-55
2023/07/27 08:05:50;;;;;;;10.70;7.90;;;;;;;24.05;68.19;99105.02;105076;1253;63695;-56
2023/07/27 08:08:18;;;;;;;8.10;6.70;;;;;;;24.06;68.44;99106.02;105133;1253;59638;-57
2023/07/27 08:10:45;;;;;;;8.90;7.10;;;;;;;24.11;68.88;99110.45;105119;1253;59602;-58
2023/07/27 08:13:13;;;;;;;9.10;7.60;;;;;;;24.18;68.88;99111.38;105119;1253;62917;-59
2023/07/27 08:15:50;;;;;;;10.00;7.00;;;;;;;24.24;69.05;99112.77;105177;1256;62473;-57
2023/07/27 08:18:18;;;;;;;9.40;6.50;;;;;;;24.34;68.65;99114.81;105587;1252;62451;-57
2023/07/27 08:20:55;;;;;;;8.90;6.20;;;;;;;24.44;68.55;99111.73;105068;1253;59827;-57
2023/07/27 08:23:23;;;;;;;6.70;5.30;;;;;;;24.54;68.06;99114.38;105437;1258;59671;-56
2023/07/27 08:25:53;;;;;;;7.60;5.00;;;;;;;24.58;67.40;99115.00;105481;1257;65066;-55
2023/07/27 08:28:20;;;;;;;8.30;5.00;;;;;;;24.58;66.78;99115.20;105248;1253;61538;-57
2023/07/27 08:30:48;;;;;;;8.30;5.40;;;;;;;24.56;66.34;99112.75;105075;1253;63713;-56
2023/07/27 08:33:16;;;;;;;6.60;5.10;;;;;;;24.57;66.46;99113.79;105167;1253;59926;-58
2023/07/27 08:35:44;;;;;;;7.30;5.00;;;;;;;24.62;66.32;99115.44;105096;1259;60430;-59
2023/07/27 08:38:11;;;;;;;7.10;4.70;;;;;;;24.67;66.38;99121.54;105141;1256;64692;-57
2023/07/27 08:40:39;;;;;;;7.40;4.40;;;;;;;24.73;66.22;99122.38;105079;1253;62250;-58
2023/07/27 08:43:07;;;;;;;7.50;4.30;;;;;;;24.76;65.49;99124.08;105524;1257;63815;-57
2023/07/27 08:45:36;;;;;;;6.60;4.30;;;;;;;24.72;65.46;99123.60;105021;1258;59835;-57
2023/07/27 08:48:05;;;;;;;5.30;3.60;;;;;;;24.70;65.78;99123.79;105144;1259;59700;-60
2023/07/27 08:50:32;;;;;;;7.20;4.30;;;;;;;24.71;65.60;99124.70;104964;1258;64288;-60
2023/07/27 08:53:00;;;;;;;6.30;4.20;;;;;;;24.73;65.33;99122.04;105149;1259;60333;-58
2023/07/27 08:55:28;;;;;;;6.80;3.80;;;;;;;24.72;65.14;99127.20;105017;1259;63763;-61
2023/07/27 08:57:55;;;;;;;6.30;4.40;;;;;;;24.70;65.16;99127.65;105059;1253;59679;-58
2023/07/27 09:00:23;;;;;;;8.10;4.10;;;;;;;24.71;65.55;99128.27;105197;1254;59744;-60
2023/07/27 09:02:51;;;;;;;11.20;8.00;;;;;;;24.74;65.22;99125.45;105161;1259;64533;-65
2023/07/27 09:05:19;;;;;;;10.20;8.00;;;;;;;24.76;65.37;99121.17;105165;1253;61359;-60
2023/07/27 09:07:50;;;;;;;6.40;4.60;;;;;;;24.83;65.53;99118.33;106074;1253;63801;-58
2023/07/27 09:10:17;;;;;;;8.20;5.30;;;;;;;24.91;65.11;99116.59;105184;1253;59762;-61
2023/07/27 09:12:45;;;;;;;7.00;4.80;;;;;;;24.97;65.12;99114.21;105364;1253;59891;-60
2023/07/27 09:15:13;;;;;;;7.20;3.80;;;;;;;25.04;65.03;99121.95;105261;1258;64070;-58
2023/07/27 09:17:41;;;;;;;5.10;3.10;;;;;;;25.09;64.62;99125.28;105383;1253;61996;-60
2023/07/27 09:20:13;;;;;;;5.70;3.60;;;;;;;25.10;64.19;99122.88;105320;1254;64218;-60
2023/07/27 09:22:42;;;;;;;6.50;4.00;;;;;;;25.11;64.26;99121.86;105456;1254;59926;-58
2023/07/27 09:25:09;;;;;;;5.20;3.20;;;;;;;25.09;63.90;99126.95;105215;1254;59763;-59
2023/07/27 09:27:41;;;;;;;5.40;2.90;;;;;;;25.04;63.71;99129.00;105187;1258;62971;-60
2023/07/27 09:30:11;;;;;;;5.90;2.90;;;;;;;24.99;63.55;99122.95;105095;1258;60088;-62
2023/07/27 09:32:39;;;;;;;6.20;2.50;;;;;;;24.96;63.30;99126.41;105018;1253;66328;-68
2023/07/27 09:35:15;;;;;;;5.20;2.40;;;;;;;24.91;63.59;99122.19;105162;1255;59737;-68
2023/07/27 09:37:44;;;;;;;4.70;2.60;;;;;;;24.90;63.51;99130.04;105396;1253;59778;-59
2023/07/27 09:40:19;;;;;;;8.10;2.80;;;;;;;24.89;63.51;99135.30;105355;1257;64050;-61
2023/07/27 09:42:47;;;;;;;4.90;2.90;;;;;;;24.89;63.56;99141.74;105244;1253;61539;-67
2023/07/27 09:45:14;;;;;;;7.20;3.40;;;;;;;24.94;63.64;99138.38;105123;1258;63723;-67
2023/07/27 09:47:42;;;;;;;6.20;4.20;;;;;;;25.03;63.80;99136.56;105028;1253;59704;-67
2023/07/27 09:50:10;;;;;;;6.50;4.20;;;;;;;25.13;63.18;99129.16;105180;1258;59269;-58
2023/07/27 09:52:38;;;;;;;6.90;4.70;;;;;;;25.20;63.11;99123.34;105475;1253;62862;-66
2023/07/27 09:55:07;;;;;;;7.60;4.30;;;;;;;25.33;63.36;99117.55;105399;1258;60107;-61
2023/07/27 09:57:35;;;;;;;8.00;4.50;;;;;;;25.46;62.42;99110.92;105377;1253;63772;-63
2023/07/27 10:00:06;;;;;;;7.50;4.40;;;;;;;25.45;61.84;99109.50;105376;1253;60023;-59
2023/07/27 10:02:40;;;;;;;9.10;5.00;;;;;;;25.35;62.16;99123.55;105136;1253;59589;-57
2023/07/27 10:05:08;;;;;;;6.90;4.80;;;;;;;25.21;61.39;99133.36;105012;1257;64097;-58
2023/07/27 10:07:38;;;;;;;6.80;5.20;;;;;;;25.05;61.08;99132.88;105288;1254;61462;-60
2023/07/27 10:10:25;;;;;;;7.30;5.30;;;;;;;24.94;61.99;99132.08;105053;1253;64883;-57
2023/07/27 10:12:57;;;;;;;9.40;6.20;;;;;;;24.98;61.78;99135.81;105389;1253;59678;-57
2023/07/27 10:15:26;;;;;;;8.70;5.90;;;;;;;25.07;61.23;99139.33;105295;1254;59725;-56
2023/07/27 10:17:58;;;;;;;7.80;6.40;;;;;;;25.16;61.19;99139.05;105147;1253;64146;-57
2023/07/27 10:20:28;;;;;;;8.10;6.40;;;;;;;25.25;61.46;99140.33;105140;1253;68213;-56
2023/07/27 10:23:20;;;;;;;7.90;6.70;;;;;;;25.35;60.98;99145.46;105112;1253;64277;-54
2023/07/27 10:25:56;;;;;;;8.90;6.40;;;;;;;25.40;60.27;99149.94;105211;1258;59747;-59
2023/07/27 10:28:41;;;;;;;7.90;6.30;;;;;;;25.42;59.25;99143.94;105469;1258;59580;-56
2023/07/27 10:31:20;;;;;;;8.10;6.60;;;;;;;25.40;59.21;99144.92;105334;1263;64151;-56
2023/07/27 10:33:52;;;;;;;8.60;6.80;;;;;;;25.39;59.13;99142.02;104986;1253;61359;-59
2023/07/27 10:36:52;;;;;;;9.20;7.60;;;;;;;25.37;59.26;99144.80;105242;1253;63750;-58
2023/07/27 10:39:27;;;;;;;9.70;7.50;;;;;;;25.32;59.23;99153.36;105465;1258;59728;-56
2023/07/27 10:42:02;;;;;;;9.20;7.30;;;;;;;25.19;58.96;99165.65;105191;1253;60756;-60
2023/07/27 10:44:42;;;;;;;9.20;7.60;;;;;;;25.01;59.54;99169.36;104773;1253;64309;-57
2023/07/27 10:47:12;;;;;;;10.60;8.00;;;;;;;24.80;60.33;99170.40;105170;1257;60210;-58
2023/07/27 10:49:49;;;;;;;9.60;7.90;;;;;;;24.67;61.13;99160.86;105366;1254;63858;-60
2023/07/27 10:52:19;;;;;;;9.60;7.40;;;;;;;24.74;61.80;99158.92;105059;1254;59759;-65
2023/07/27 10:54:47;;;;;;;10.50;8.00;;;;;;;24.88;60.90;99168.48;105197;1255;59824;-65
2023/07/27 10:57:16;;;;;;;9.60;7.60;;;;;;;24.89;59.76;99173.45;105370;1257;64128;-60
2023/07/27 10:59:46;;;;;;;8.70;7.80;;;;;;;24.82;60.02;99170.98;105199;1253;61308;-58
2023/07/27 11:02:24;;;;;;;9.10;7.80;;;;;;;24.77;60.42;99175.89;105132;1257;63668;-57
2023/07/27 11:04:54;;;;;;;10.30;7.70;;;;;;;24.79;60.80;99181.96;105141;1257;59592;-58
2023/07/27 11:07:35;;;;;;;8.60;7.30;;;;;;;24.93;60.04;99186.86;105381;1258;59474;-58
2023/07/27 11:10:03;;;;;;;8.70;7.10;;;;;;;25.08;58.75;99192.50;105120;1258;64166;-58
2023/07/27 11:12:31;;;;;;;8.70;6.90;;;;;;;25.14;58.54;99193.87;106369;1253;60287;-59
2023/07/27 11:15:29;;;;;;;7.40;6.00;;;;;;;25.18;58.45;99197.76;105093;1254;63747;-59
2023/07/27 11:17:59;;;;;;;8.50;6.00;;;;;;;25.19;58.06;99199.11;105391;1257;59733;-60
2023/07/27 11:20:30;;;;;;;6.50;5.30;;;;;;;25.12;57.75;99201.98;105414;1253;59528;-57
2023/07/27 11:22:58;;;;;;;8.50;5.40;;;;;;;24.99;58.13;99205.35;105081;1253;63050;-60
2023/07/27 11:25:29;;;;;;;6.50;5.50;;;;;;;24.85;58.51;99206.75;105042;1259;60250;-52
2023/07/27 11:27:57;;;;;;;5.70;4.00;;;;;;;24.68;58.72;99220.09;104992;1259;63738;-57
2023/07/27 11:30:25;;;;;;;6.10;4.10;;;;;;;24.49;59.05;99219.95;104918;1260;59701;-56
2023/07/27 11:33:00;;;;;;;7.30;3.80;;;;;;;24.27;59.16;99229.98;105109;1254;62996;-59